Time;durP1;ratioP1;P1;durP2;ratioP2;P2;SDS_P1;SDS_P2;PMS_P1;PMS_P2;Temp;Humidity;BMP_temperature;BMP_pressure;BME280_temperature;BME280_humidity;BME280_pressure;Samples;Min_cycle;Max_cycle;Signal;HPM_P1;HPM_P2
2023/10/07 00:00:49;;;;;;;8.27;1.88;;;25.60;46.60;;;;;;5077742;28;20028;-66
2023/10/07 00:03:21;;;;;;;8.02;1.40;;;24.70;48.10;;;;;;5071240;28;20033;-68
2023/10/07 00:05:50;;;;;;;10.55;1.35;;;24.10;48.30;;;;;;5074464;28;20029;-68
2023/10/07 00:08:20;;;;;;;8.07;1.15;;;23.70;49.40;;;;;;5074088;28;20032;-66
2023/10/07 00:10:49;;;;;;;6.68;1.65;;;24.00;50.10;;;;;;5072449;28;20056;-67
2023/10/07 00:13:20;;;;;;;8.63;1.65;;;24.30;49.40;;;;;;5056518;28;20071;-66
2023/10/07 00:15:51;;;;;;;7.28;1.23;;;24.00;49.10;;;;;;5057791;28;20528;-68
2023/10/07 00:18:19;;;;;;;3.53;1.02;;;24.20;49.30;;;;;;5074650;28;20036;-68
2023/10/07 00:20:50;;;;;;;6.45;1.10;;;24.50;46.10;;;;;;5082328;28;20020;-67
2023/10/07 00:23:22;;;;;;;4.80;1.17;;;25.00;47.10;;;;;;5064429;28;20384;-67
2023/10/07 00:25:52;;;;;;;3.65;1.20;;;25.00;46.40;;;;;;5075710;28;20020;-69
2023/10/07 00:28:35;;;;;;;3.92;1.10;;;25.10;48.10;;;;;;5079807;28;20026;-68
2023/10/07 00:31:09;;;;;;;6.70;1.65;;;25.20;47.10;;;;;;5076007;28;20497;-66
2023/10/07 00:36:43;;;;;;;6.20;1.23;;;25.70;46.90;;;;;;5074937;28;20430;-68
2023/10/07 00:39:20;;;;;;;6.95;1.30;;;26.30;46.00;;;;;;5078090;28;20055;-67
2023/10/07 00:41:50;;;;;;;4.45;1.00;;;25.60;45.10;;;;;;5060040;28;20036;-66
2023/10/07 00:44:29;;;;;;;4.53;1.13;;;24.50;46.10;;;;;;5078263;28;20085;-67
2023/10/07 00:49:57;;;;;;;4.50;1.20;;;25.50;46.00;;;;;;5079604;28;20069;-67
2023/10/07 01:00:49;;;;;;;5.30;0.93;;;23.50;48.10;;;;;;5085585;28;20048;-66
2023/10/07 01:03:06;;;;;;;1.70;0.73;;;22.90;48.90;;;;;;5060894;28;20060;-66
2023/10/07 01:05:35;;;;;;;3.33;1.05;;;23.00;49.10;;;;;;5072817;28;20025;-67
2023/10/07 01:08:06;;;;;;;3.92;1.02;;;23.80;50.40;;;;;;5075947;28;20031;-67
2023/10/07 01:10:38;;;;;;;5.85;0.98;;;24.30;48.10;;;;;;5071536;28;20373;-67
2023/10/07 01:13:24;;;;;;;4.93;1.15;;;24.40;48.00;;;;;;5068266;28;20449;-67
2023/10/07 01:15:53;;;;;;;5.18;0.90;;;24.30;46.70;;;;;;5070651;28;20046;-67
2023/10/07 01:18:21;;;;;;;3.05;0.80;;;23.40;47.10;;;;;;5078743;28;20032;-65
2023/10/07 01:23:33;;;;;;;3.70;0.70;;;22.60;49.80;;;;;;5070903;28;20111;-68
2023/10/07 01:26:14;;;;;;;3.75;0.90;;;23.60;48.20;;;;;;5075077;28;20031;-66
2023/10/07 01:28:45;;;;;;;5.13;0.70;;;24.30;47.80;;;;;;5081694;28;20024;-68
2023/10/07 01:31:18;;;;;;;1.40;0.60;;;24.60;46.40;;;;;;5056722;28;20027;-67
2023/10/07 01:33:48;;;;;;;4.60;0.80;;;24.80;45.20;;;;;;5069376;28;20032;-67
2023/10/07 01:36:19;;;;;;;2.70;0.98;;;24.10;46.30;;;;;;5077898;28;20028;-68
2023/10/07 01:38:53;;;;;;;4.20;0.75;;;23.50;46.10;;;;;;5083057;28;20032;-68
2023/10/07 01:41:27;;;;;;;3.90;0.80;;;22.80;46.90;;;;;;5081608;28;20069;-65
2023/10/07 01:44:04;;;;;;;3.15;0.80;;;22.40;46.40;;;;;;5074703;28;20375;-66
2023/10/07 01:46:34;;;;;;;7.57;1.05;;;22.20;48.50;;;;;;5084517;28;20143;-67
2023/10/07 01:49:11;;;;;;;4.97;0.65;;;21.90;49.10;;;;;;5083923;28;20056;-67
2023/10/07 01:51:44;;;;;;;2.92;0.80;;;21.60;50.70;;;;;;5079754;28;20366;-66
2023/10/07 01:54:12;;;;;;;4.63;0.90;;;21.30;52.00;;;;;;5055516;28;20432;-66
2023/10/07 01:56:40;;;;;;;6.28;1.17;;;21.30;52.40;;;;;;5079956;28;20060;-67
2023/10/07 02:01:51;;;;;;;1.70;0.50;;;23.20;50.70;;;;;;5074258;28;20381;-68
2023/10/07 02:04:28;;;;;;;5.68;0.90;;;24.10;47.70;;;;;;5077320;28;20103;-68
2023/10/07 02:06:56;;;;;;;5.90;1.00;;;24.60;48.20;;;;;;5060721;28;20033;-68
2023/10/07 02:09:35;;;;;;;5.25;0.98;;;23.90;48.10;;;;;;5078968;28;20029;-66
2023/10/07 02:12:09;;;;;;;4.15;1.35;;;23.10;48.40;;;;;;5073955;28;20028;-68
2023/10/07 02:14:38;;;;;;;5.82;1.10;;;22.70;50.00;;;;;;5075434;28;20388;-66
2023/10/07 02:17:08;;;;;;;3.10;0.90;;;22.40;49.70;;;;;;5060168;28;20039;-67
2023/10/07 02:19:40;;;;;;;4.25;1.02;;;22.20;50.40;;;;;;5074409;28;20052;-66
2023/10/07 02:22:09;;;;;;;6.35;1.20;;;22.20;51.50;;;;;;5075195;28;20027;-65
2023/10/07 02:24:43;;;;;;;5.40;1.08;;;22.20;50.00;;;;;;5056663;28;20055;-67
2023/10/07 02:27:19;;;;;;;7.55;1.27;;;22.00;49.70;;;;;;5078578;28;20059;-66
2023/10/07 02:29:51;;;;;;;3.00;0.80;;;22.20;50.70;;;;;;5073830;28;20107;-66
2023/10/07 02:32:19;;;;;;;3.80;1.02;;;23.00;48.80;;;;;;5057801;28;20393;-66
2023/10/07 02:34:53;;;;;;;4.05;1.05;;;24.00;48.40;;;;;;5057725;28;20089;-66
2023/10/07 02:37:22;;;;;;;5.38;1.02;;;23.90;48.50;;;;;;5075457;28;20068;-66
2023/10/07 02:39:54;;;;;;;2.88;0.80;;;23.30;48.20;;;;;;5083325;28;20123;-67
2023/10/07 02:42:24;;;;;;;4.22;0.93;;;23.60;48.50;;;;;;5054070;28;20373;-67
2023/10/07 02:45:20;;;;;;;5.00;1.15;;;23.70;47.70;;;;;;5073738;28;20072;-67
2023/10/07 02:47:54;;;;;;;5.45;0.80;;;23.10;47.60;;;;;;5081850;28;20157;-66
2023/10/07 02:50:25;;;;;;;3.55;0.95;;;22.90;49.00;;;;;;5071597;28;20052;-67
2023/10/07 02:52:54;;;;;;;5.55;0.90;;;22.50;49.90;;;;;;5072541;28;20020;-67
2023/10/07 02:57:55;;;;;;;4.72;0.70;;;21.70;51.50;;;;;;5085783;28;20054;-66
2023/10/07 03:01:10;;;;;;;3.70;0.65;;;21.50;51.90;;;;;;5085479;28;20036;-66
2023/10/07 03:03:32;;;;;;;3.78;0.73;;;21.30;51.80;;;;;;5074167;28;20455;-67
2023/10/07 03:06:06;;;;;;;3.30;1.00;;;21.60;50.70;;;;;;5070898;28;20058;-68
2023/10/07 03:08:48;;;;;;;2.50;0.47;;;22.10;50.00;;;;;;5073760;28;20033;-67
2023/10/07 03:11:23;;;;;;;1.45;0.45;;;22.60;48.20;;;;;;5068670;28;20400;-66
2023/10/07 03:13:57;;;;;;;5.50;0.60;;;23.40;48.00;;;;;;5069610;28;20028;-67
2023/10/07 03:22:10;;;;;;;2.65;0.68;;;22.70;48.40;;;;;;5084421;28;20041;-67
2023/10/07 03:24:12;;;;;;;;;;;22.40;49.40;;;;;;5064927;28;20413;-66
2023/10/07 03:26:40;;;;;;;;;;;22.00;49.60;;;;;;5076197;28;19916;-67
2023/10/07 03:29:24;;;;;;;;;;;22.40;50.10;;;;;;5080438;28;19915;-67
2023/10/07 03:31:52;;;;;;;2.20;0.60;;;23.20;47.00;;;;;;5078184;28;19912;-68
2023/10/07 03:34:20;;;;;;;2.72;0.57;;;22.90;46.70;;;;;;5084438;28;20033;-66
2023/10/07 03:40:17;;;;;;;3.47;0.60;;;23.50;48.20;;;;;;5032074;28;20055;-66
2023/10/07 03:42:45;;;;;;;3.00;0.90;;;24.20;47.80;;;;;;5078465;28;20052;-66
2023/10/07 03:45:14;;;;;;;2.53;0.70;;;24.00;47.10;;;;;;5080232;28;20337;-66
2023/10/07 03:47:46;;;;;;;7.10;1.10;;;23.20;48.60;;;;;;5078826;28;20056;-68
2023/10/07 03:50:34;;;;;;;6.85;1.77;;;22.80;49.70;;;;;;5059267;28;20047;-66
2023/10/07 03:53:01;;;;;;;4.47;0.70;;;22.70;50.60;;;;;;5080506;28;20185;-67
2023/10/07 03:55:30;;;;;;;7.13;1.40;;;23.00;49.70;;;;;;5082216;28;20031;-66
2023/10/07 03:57:57;;;;;;;3.15;0.90;;;22.80;49.40;;;;;;5082193;28;20461;-67
2023/10/07 04:00:33;;;;;;;6.15;1.10;;;23.20;50.80;;;;;;5078344;28;20029;-66
2023/10/07 04:03:07;;;;;;;6.45;1.33;;;23.40;49.30;;;;;;5073077;28;20032;-66
2023/10/07 04:05:42;;;;;;;2.03;0.60;;;23.60;49.20;;;;;;5081015;28;20024;-65
2023/10/07 04:08:09;;;;;;;4.05;0.90;;;23.80;47.70;;;;;;5078025;28;20033;-65
2023/10/07 04:10:43;;;;;;;5.28;1.10;;;23.90;48.80;;;;;;5079314;28;20028;-66
2023/10/07 04:13:24;;;;;;;3.03;1.02;;;24.20;48.30;;;;;;5074026;28;20119;-66
2023/10/07 04:15:52;;;;;;;6.28;1.15;;;24.20;46.50;;;;;;5074560;28;20484;-68
2023/10/07 04:18:34;;;;;;;5.90;1.05;;;24.30;47.00;;;;;;5074877;28;20123;-66
2023/10/07 04:21:02;;;;;;;5.63;1.45;;;24.30;47.20;;;;;;5071185;28;20032;-66
2023/10/07 04:23:30;;;;;;;4.68;1.27;;;24.30;48.50;;;;;;5076634;28;20470;-66
2023/10/07 04:26:05;;;;;;;4.30;1.13;;;24.00;48.10;;;;;;5077059;28;20020;-66
2023/10/07 04:28:33;;;;;;;7.35;1.55;;;23.70;49.00;;;;;;5076343;28;20399;-66
2023/10/07 04:31:09;;;;;;;4.88;0.77;;;23.70;49.20;;;;;;5073029;28;20032;-66
2023/10/07 04:33:46;;;;;;;7.07;1.48;;;23.60;48.50;;;;;;5077007;28;20116;-68
2023/10/07 04:36:14;;;;;;;6.90;2.03;;;23.40;49.80;;;;;;5059356;28;20031;-65
2023/10/07 04:39:08;;;;;;;9.05;1.60;;;23.10;48.30;;;;;;5070094;28;20043;-66
2023/10/07 04:41:33;;;;;;;1.95;0.77;;;23.10;49.60;;;;;;5074514;28;20115;-66
2023/10/07 04:44:20;;;;;;;4.15;0.95;;;23.40;48.70;;;;;;5089290;28;20032;-66
2023/10/07 04:46:57;;;;;;;6.22;1.10;;;22.80;50.10;;;;;;5083799;28;20385;-69
2023/10/07 04:49:37;;;;;;;4.25;1.15;;;22.00;51.10;;;;;;5075058;28;20083;-66
2023/10/07 04:52:07;;;;;;;7.65;1.30;;;21.60;52.20;;;;;;5052715;28;20045;-68
2023/10/07 04:54:37;;;;;;;7.72;1.25;;;21.40;53.80;;;;;;5074979;28;20138;-69
2023/10/07 04:57:10;;;;;;;9.60;1.45;;;21.90;52.00;;;;;;5074437;28;20028;-66
2023/10/07 04:59:45;;;;;;;5.70;1.20;;;21.90;51.30;;;;;;5070543;28;20036;-66
2023/10/07 05:02:15;;;;;;;7.07;1.20;;;21.60;51.40;;;;;;5060142;28;20016;-65
2023/10/07 05:04:49;;;;;;;5.32;1.30;;;21.40;52.70;;;;;;5070869;28;20081;-66
2023/10/07 05:07:24;;;;;;;4.45;1.23;;;21.30;53.70;;;;;;5071033;28;20024;-66
2023/10/07 05:09:52;;;;;;;4.93;1.17;;;21.50;53.80;;;;;;5076304;28;20402;-66
2023/10/07 05:12:20;;;;;;;5.32;1.00;;;22.20;51.60;;;;;;5083164;28;20081;-66
2023/10/07 05:14:49;;;;;;;6.50;1.35;;;22.70;51.90;;;;;;5070441;28;20115;-67
2023/10/07 05:17:16;;;;;;;3.17;0.88;;;23.00;50.80;;;;;;5073303;28;20024;-66
2023/10/07 05:19:46;;;;;;;5.03;1.00;;;22.90;50.80;;;;;;5083304;28;20040;-67
2023/10/07 05:22:16;;;;;;;4.88;1.17;;;22.80;51.20;;;;;;5082166;28;20389;-67
2023/10/07 05:24:51;;;;;;;8.38;1.10;;;22.40;50.70;;;;;;5074954;28;20038;-68
2023/10/07 05:27:19;;;;;;;7.63;1.23;;;21.80;52.80;;;;;;5084618;28;20655;-68
2023/10/07 05:29:46;;;;;;;5.32;1.38;;;21.20;53.50;;;;;;5084229;28;20016;-68
2023/10/07 05:32:14;;;;;;;3.33;1.02;;;21.00;53.80;;;;;;5076521;28;20499;-68
2023/10/07 05:34:41;;;;;;;5.40;0.95;;;20.90;54.00;;;;;;5080053;28;20021;-68
2023/10/07 05:37:12;;;;;;;10.40;1.70;;;20.90;54.10;;;;;;5076821;28;20024;-68
2023/10/07 05:39:42;;;;;;;3.55;1.17;;;21.10;54.90;;;;;;5080555;28;20032;-67
2023/10/07 05:42:11;;;;;;;6.63;1.08;;;21.40;55.00;;;;;;5073162;28;20024;-67
2023/10/07 05:44:40;;;;;;;5.57;1.00;;;21.40;55.00;;;;;;5074138;28;20056;-68
2023/10/07 05:47:09;;;;;;;6.00;1.13;;;21.60;54.40;;;;;;5055575;28;20530;-69
2023/10/07 05:49:37;;;;;;;7.82;0.98;;;21.60;54.30;;;;;;5073163;28;20048;-68
2023/10/07 05:52:05;;;;;;;3.38;0.95;;;21.20;54.10;;;;;;5056673;28;20102;-67
2023/10/07 05:54:33;;;;;;;3.97;0.85;;;20.80;54.70;;;;;;5059313;28;20349;-66
2023/10/07 05:57:04;;;;;;;5.55;1.45;;;20.40;55.60;;;;;;5068754;28;21502;-66
2023/10/07 05:59:34;;;;;;;5.93;0.95;;;19.90;57.40;;;;;;5053578;28;20055;-67
2023/10/07 06:02:05;;;;;;;4.18;0.98;;;19.70;58.40;;;;;;5069576;28;20039;-67
2023/10/07 06:04:33;;;;;;;8.35;1.00;;;19.80;57.90;;;;;;5073775;28;20071;-67
2023/10/07 06:07:01;;;;;;;2.85;0.60;;;19.70;58.10;;;;;;5071046;28;20473;-68
2023/10/07 06:09:29;;;;;;;4.05;0.93;;;19.50;58.20;;;;;;5076784;28;20070;-67
2023/10/07 06:11:57;;;;;;;7.32;0.82;;;19.20;58.70;;;;;;5078556;28;20082;-67
2023/10/07 06:14:24;;;;;;;9.80;0.90;;;19.10;59.70;;;;;;5071003;28;20056;-66
2023/10/07 06:16:55;;;;;;;6.43;1.15;;;19.00;60.20;;;;;;5070965;28;20038;-68
2023/10/07 06:19:23;;;;;;;7.20;0.70;;;18.90;60.30;;;;;;5071707;28;20127;-67
2023/10/07 06:21:56;;;;;;;3.28;0.63;;;19.00;59.90;;;;;;5078828;28;20028;-68
2023/10/07 06:24:24;;;;;;;5.25;0.60;;;19.00;60.30;;;;;;5073542;28;20488;-67
2023/10/07 06:26:54;;;;;;;5.00;0.68;;;18.90;60.70;;;;;;5054665;28;20029;-67
2023/10/07 06:29:25;;;;;;;9.63;0.80;;;18.90;60.50;;;;;;5069065;28;20037;-67
2023/10/07 06:32:12;;;;;;;4.57;0.57;;;19.20;61.20;;;;;;5066943;28;20024;-67
2023/10/07 06:34:44;;;;;;;4.43;0.65;;;19.40;61.50;;;;;;5051206;28;20040;-67
2023/10/07 06:37:12;;;;;;;1.85;0.45;;;19.30;61.00;;;;;;5049067;28;20196;-67
2023/10/07 06:39:41;;;;;;;6.45;0.65;;;19.30;61.60;;;;;;5052208;28;20071;-67
2023/10/07 06:42:10;;;;;;;5.20;0.60;;;19.50;60.50;;;;;;5049828;28;20427;-67
2023/10/07 06:44:38;;;;;;;3.00;0.73;;;19.30;61.00;;;;;;5070565;28;20028;-67
2023/10/07 06:47:10;;;;;;;5.32;0.82;;;19.30;61.60;;;;;;5074485;28;20451;-66
2023/10/07 06:49:39;;;;;;;4.45;0.68;;;19.10;61.00;;;;;;5070208;28;20354;-67
2023/10/07 06:52:12;;;;;;;4.18;0.82;;;19.00;61.00;;;;;;5072977;28;20389;-67
2023/10/07 06:54:40;;;;;;;3.42;0.68;;;18.90;61.00;;;;;;5059671;28;20028;-67
2023/10/07 06:57:10;;;;;;;5.90;0.93;;;19.10;60.60;;;;;;5085438;28;20031;-67
2023/10/07 06:59:45;;;;;;;7.30;0.93;;;19.10;60.70;;;;;;5079236;28;20045;-67
2023/10/07 07:02:18;;;;;;;4.15;0.95;;;19.10;60.30;;;;;;5076638;28;20380;-67
2023/10/07 07:04:52;;;;;;;5.20;0.70;;;19.00;61.00;;;;;;5072451;28;20029;-68
2023/10/07 07:07:20;;;;;;;4.35;0.70;;;19.00;60.40;;;;;;5075971;28;20353;-67
2023/10/07 07:12:21;;;;;;;2.25;0.88;;;18.70;61.60;;;;;;5077775;28;20061;-67
2023/10/07 07:15:05;;;;;;;2.80;0.65;;;18.70;62.50;;;;;;5059409;28;20032;-67
2023/10/07 07:17:36;;;;;;;5.40;0.68;;;18.50;63.40;;;;;;5072269;28;20020;-66
2023/10/07 07:22:45;;;;;;;5.80;0.93;;;18.20;64.50;;;;;;5079615;28;20036;-67
2023/10/07 07:25:39;;;;;;;5.47;0.90;;;18.10;65.70;;;;;;5079517;28;20017;-66
2023/10/07 07:28:09;;;;;;;6.43;1.10;;;18.00;66.70;;;;;;5078616;28;20036;-67
2023/10/07 07:30:38;;;;;;;5.47;0.90;;;17.70;67.50;;;;;;5082197;28;20032;-68
2023/10/07 07:33:12;;;;;;;6.85;0.93;;;17.60;68.50;;;;;;5078330;28;20020;-67
2023/10/07 07:35:43;;;;;;;4.07;0.63;;;17.40;68.90;;;;;;5063996;28;20032;-67
2023/10/07 07:41:55;;;;;;;4.50;0.70;;;17.20;70.90;;;;;;5072480;28;20135;-67
2023/10/07 07:44:10;;;;;;;5.22;0.95;;;17.00;72.20;;;;;;5066241;28;20603;-67
2023/10/07 07:49:28;;;;;;;5.80;0.80;;;16.90;73.60;;;;;;5078750;28;20055;-67
2023/10/07 07:51:56;;;;;;;5.70;1.50;;;16.90;74.50;;;;;;5080558;28;20029;-67
2023/10/07 07:54:27;;;;;;;6.00;0.75;;;16.90;75.00;;;;;;5076008;28;20111;-68
2023/10/07 07:56:54;;;;;;;9.23;1.08;;;16.80;75.60;;;;;;5079814;28;20025;-69
2023/10/07 07:59:33;;;;;;;;;;;16.70;75.80;;;;;;5075070;28;20048;-68
2023/10/07 08:02:13;;;;;;;5.55;0.88;;;16.70;76.20;;;;;;5062419;28;19911;-67
2023/10/07 08:04:48;;;;;;;6.43;0.60;;;16.70;76.70;;;;;;5077261;28;20033;-69
2023/10/07 08:07:27;;;;;;;4.25;0.95;;;16.70;77.30;;;;;;5042507;28;20032;-68
2023/10/07 08:09:58;;;;;;;6.55;1.13;;;16.60;77.80;;;;;;5051659;28;20115;-68
2023/10/07 08:12:35;;;;;;;4.20;0.68;;;16.40;78.70;;;;;;5036626;28;20035;-68
2023/10/07 08:17:46;;;;;;;3.85;0.75;;;16.40;79.30;;;;;;5072057;28;20139;-68
2023/10/07 08:20:14;;;;;;;5.78;1.27;;;16.30;79.60;;;;;;5074511;28;20080;-68
2023/10/07 08:22:46;;;;;;;4.63;1.30;;;16.30;79.80;;;;;;5066235;28;20038;-67
2023/10/07 08:26:10;;;;;;;3.88;0.80;;;16.40;79.60;;;;;;5074694;28;20071;-68
2023/10/07 08:28:59;;;;;;;7.32;1.77;;;16.40;79.90;;;;;;5083627;28;20135;-67
2023/10/07 08:31:20;;;;;;;4.38;0.80;;;16.50;79.40;;;;;;5073210;28;20123;-67
2023/10/07 08:34:09;;;;;;;7.72;1.48;;;16.40;79.70;;;;;;5058870;28;20032;-68
2023/10/07 08:36:47;;;;;;;6.15;1.33;;;16.50;79.60;;;;;;5072334;28;20028;-67
2023/10/07 08:39:18;;;;;;;4.07;0.85;;;16.50;79.60;;;;;;5084280;28;20400;-67
2023/10/07 08:41:52;;;;;;;5.32;1.20;;;16.50;79.50;;;;;;5072278;28;20029;-67
2023/10/07 08:44:29;;;;;;;6.55;1.88;;;16.50;79.80;;;;;;5059291;28;20029;-68
2023/10/07 08:47:05;;;;;;;6.63;1.52;;;16.50;79.60;;;;;;5063993;28;20035;-67
2023/10/07 08:49:36;;;;;;;6.95;1.13;;;16.50;79.80;;;;;;5058188;28;20063;-68
2023/10/07 08:52:09;;;;;;;4.85;0.80;;;16.50;79.50;;;;;;5050180;28;20040;-67
2023/10/07 08:54:44;;;;;;;6.47;0.80;;;16.50;79.40;;;;;;5074761;28;20028;-68
2023/10/07 08:57:19;;;;;;;4.13;0.70;;;16.40;79.70;;;;;;5060355;28;20461;-67
2023/10/07 08:59:52;;;;;;;5.53;1.10;;;16.50;78.80;;;;;;5077430;28;20048;-68
2023/10/07 09:02:40;;;;;;;2.58;1.10;;;16.50;78.30;;;;;;5058377;28;20118;-68
2023/10/07 09:05:16;;;;;;;5.13;1.00;;;16.50;78.80;;;;;;5073720;28;20037;-68
2023/10/07 09:07:48;;;;;;;6.15;1.52;;;16.60;78.90;;;;;;5055444;28;20044;-69
2023/10/07 09:10:17;;;;;;;9.23;1.20;;;16.60;79.20;;;;;;5073887;28;20078;-67
2023/10/07 09:12:56;;;;;;;8.32;1.10;;;16.60;79.20;;;;;;5070765;28;20773;-67
2023/10/07 09:15:28;;;;;;;8.55;1.40;;;16.50;79.50;;;;;;5074373;28;20063;-68
2023/10/07 09:18:17;;;;;;;5.75;1.52;;;16.50;79.60;;;;;;5076539;28;20021;-68
2023/10/07 09:20:50;;;;;;;6.38;1.25;;;16.40;79.50;;;;;;5059680;28;20143;-67
2023/10/07 09:23:23;;;;;;;8.70;1.33;;;16.40;79.80;;;;;;5056784;28;20028;-68
2023/10/07 09:25:54;;;;;;;2.83;0.70;;;16.40;80.10;;;;;;5077245;28;20123;-68
2023/10/07 09:28:31;;;;;;;7.63;1.20;;;16.30;81.10;;;;;;5074722;28;20032;-68
2023/10/07 09:31:05;;;;;;;4.97;1.05;;;16.30;80.90;;;;;;5058504;28;20032;-67
2023/10/07 09:33:37;;;;;;;6.93;1.33;;;16.30;81.10;;;;;;5054395;28;20125;-68
2023/10/07 09:36:33;;;;;;;2.80;1.10;;;16.20;81.30;;;;;;5078007;28;20020;-67
2023/10/07 09:41:55;;;;;;;4.72;1.42;;;16.20;81.70;;;;;;5075053;28;20040;-66
2023/10/07 09:44:27;;;;;;;5.63;1.73;;;16.20;82.40;;;;;;5070456;28;20028;-68
2023/10/07 09:46:55;;;;;;;5.18;1.60;;;16.20;82.30;;;;;;5068672;28;20495;-68
2023/10/07 09:49:25;;;;;;;7.57;1.33;;;16.00;83.00;;;;;;5073974;28;20056;-68
2023/10/07 09:52:15;;;;;;;5.93;1.20;;;16.00;83.90;;;;;;5056856;28;20039;-67
2023/10/07 09:55:22;;;;;;;5.43;1.60;;;16.00;84.20;;;;;;5069777;28;20032;-68
2023/10/07 09:57:55;;;;;;;5.53;1.15;;;16.00;84.10;;;;;;5071001;28;20123;-69
2023/10/07 10:01:05;;;;;;;5.95;1.25;;;15.90;84.50;;;;;;5050328;28;20040;-68
2023/10/07 10:03:59;;;;;;;;;;;15.90;84.20;;;;;;5064168;28;20063;-68
2023/10/07 10:06:47;;;;;;;8.15;1.48;;;15.80;85.00;;;;;;5073290;28;19912;-69
2023/10/07 10:09:23;;;;;;;9.90;0.90;;;15.80;85.10;;;;;;5073757;28;20493;-68
2023/10/07 10:14:56;;;;;;;3.97;1.00;;;15.60;86.40;;;;;;5077370;28;20043;-67
2023/10/07 10:17:48;;;;;;;3.20;1.00;;;15.50;86.80;;;;;;5080517;28;20024;-67
2023/10/07 10:20:18;;;;;;;5.97;1.08;;;15.50;87.30;;;;;;5072180;28;20143;-67
2023/10/07 10:23:00;;;;;;;6.90;1.20;;;15.50;87.30;;;;;;5076865;28;20032;-68
2023/10/07 10:25:39;;;;;;;9.27;1.00;;;15.40;87.20;;;;;;5081092;28;20113;-67
2023/10/07 10:28:08;;;;;;;9.93;1.20;;;15.40;87.50;;;;;;5065177;28;20039;-68
2023/10/07 10:30:53;;;;;;;3.88;1.00;;;15.40;87.80;;;;;;5079043;28;20021;-67
2023/10/07 10:33:28;;;;;;;4.13;1.27;;;15.40;87.90;;;;;;5078671;28;20081;-67
2023/10/07 10:35:58;;;;;;;7.28;1.13;;;15.30;88.20;;;;;;5081775;28;20097;-67
2023/10/07 10:38:40;;;;;;;6.43;1.30;;;15.30;88.10;;;;;;5079414;28;20043;-67
2023/10/07 10:41:11;;;;;;;7.53;1.13;;;15.30;88.40;;;;;;5076688;28;20171;-69
2023/10/07 10:43:38;;;;;;;5.65;0.93;;;15.20;88.40;;;;;;5083890;28;20103;-69
2023/10/07 10:46:07;;;;;;;9.25;0.90;;;15.20;89.00;;;;;;5061124;28;20029;-68
2023/10/07 10:48:40;;;;;;;3.45;1.10;;;15.10;89.10;;;;;;5080248;28;20443;-68
2023/10/07 10:51:08;;;;;;;6.45;0.98;;;15.00;89.10;;;;;;5082440;28;20130;-67
2023/10/07 10:53:41;;;;;;;2.35;1.00;;;15.00;89.30;;;;;;5061325;28;20393;-67
2023/10/07 10:56:10;;;;;;;7.60;1.00;;;14.90;89.50;;;;;;5077997;28;20150;-67
2023/10/07 10:58:39;;;;;;;4.47;1.00;;;14.90;89.80;;;;;;5080401;28;20476;-68
2023/10/07 11:01:07;;;;;;;8.20;1.20;;;14.80;89.90;;;;;;5079653;28;20526;-67
2023/10/07 11:03:36;;;;;;;6.38;0.90;;;14.80;90.30;;;;;;5058352;28;20056;-67
2023/10/07 11:06:06;;;;;;;9.27;1.77;;;14.80;90.30;;;;;;5082304;28;20032;-67
2023/10/07 11:08:34;;;;;;;7.85;1.00;;;14.80;90.40;;;;;;5063747;28;20043;-67
2023/10/07 11:11:02;;;;;;;7.63;0.98;;;14.70;90.30;;;;;;5078726;28;20492;-66
2023/10/07 11:13:30;;;;;;;6.22;0.98;;;14.70;90.50;;;;;;5081721;28;20369;-67
2023/10/07 11:16:10;;;;;;;7.55;1.38;;;14.60;90.70;;;;;;5080666;28;20036;-66
2023/10/07 11:18:45;;;;;;;9.20;1.33;;;14.50;90.90;;;;;;5075737;28;20041;-67
2023/10/07 11:21:15;;;;;;;8.25;1.98;;;14.60;90.80;;;;;;5072686;28;20023;-67
2023/10/07 11:23:52;;;;;;;10.30;1.83;;;14.50;90.90;;;;;;5055615;28;20587;-66
2023/10/07 11:26:27;;;;;;;11.97;3.13;;;14.40;91.00;;;;;;5076042;28;20428;-67
2023/10/07 11:28:56;;;;;;;9.20;2.47;;;14.40;91.20;;;;;;5077414;28;20339;-67
2023/10/07 11:31:30;;;;;;;11.50;2.55;;;14.40;91.20;;;;;;5076064;28;20380;-67
2023/10/07 11:33:59;;;;;;;9.18;2.65;;;14.30;91.40;;;;;;5071484;28;20036;-66
2023/10/07 11:36:26;;;;;;;8.85;2.47;;;14.20;91.50;;;;;;5072855;28;20032;-67
2023/10/07 11:38:57;;;;;;;12.05;2.70;;;14.20;91.90;;;;;;5073298;28;20044;-67
2023/10/07 11:41:24;;;;;;;13.10;2.70;;;14.20;92.10;;;;;;5065818;28;20020;-68
2023/10/07 11:43:53;;;;;;;11.98;3.08;;;14.10;92.10;;;;;;5081328;28;20036;-68
2023/10/07 11:46:21;;;;;;;12.85;3.30;;;14.10;92.00;;;;;;5076789;28;20029;-67
2023/10/07 11:48:48;;;;;;;9.02;2.70;;;14.00;92.20;;;;;;5073507;28;20025;-67
2023/10/07 11:51:15;;;;;;;8.55;2.83;;;13.90;92.30;;;;;;5076255;28;20017;-67
2023/10/07 11:53:43;;;;;;;12.88;3.30;;;13.80;92.40;;;;;;5075250;28;20020;-67
2023/10/07 11:56:15;;;;;;;22.88;3.53;;;13.70;92.50;;;;;;5074019;28;20021;-67
2023/10/07 11:58:45;;;;;;;7.85;2.38;;;13.60;92.80;;;;;;5076239;28;20079;-69
2023/10/07 12:01:13;;;;;;;9.75;2.40;;;13.60;92.90;;;;;;5065170;28;20028;-68
2023/10/07 12:03:43;;;;;;;6.93;1.88;;;13.50;93.00;;;;;;5078852;28;20020;-69
2023/10/07 12:06:11;;;;;;;8.50;2.25;;;13.50;93.20;;;;;;5074245;28;20039;-69
2023/10/07 12:08:39;;;;;;;7.05;2.10;;;13.40;93.30;;;;;;5076581;28;20507;-69
2023/10/07 12:11:08;;;;;;;6.90;2.03;;;13.40;93.20;;;;;;5067063;28;20473;-69
2023/10/07 12:13:35;;;;;;;10.02;2.22;;;13.30;93.20;;;;;;5076546;28;20024;-69
2023/10/07 12:16:03;;;;;;;8.07;2.13;;;13.30;93.30;;;;;;5064097;28;20037;-69
2023/10/07 12:18:30;;;;;;;7.78;1.73;;;13.20;93.20;;;;;;5070959;28;20053;-69
2023/10/07 12:21:00;;;;;;;11.38;1.90;;;13.20;93.30;;;;;;5075517;28;20023;-69
2023/10/07 12:23:27;;;;;;;8.63;2.35;;;13.10;93.50;;;;;;5073119;28;20077;-68
2023/10/07 12:25:56;;;;;;;8.68;1.90;;;13.10;93.60;;;;;;5074068;28;20386;-68
2023/10/07 12:28:24;;;;;;;6.07;1.70;;;13.00;93.80;;;;;;5063401;28;20087;-68
2023/10/07 12:30:52;;;;;;;4.20;1.25;;;13.10;93.80;;;;;;5066463;28;20033;-68
2023/10/07 12:33:19;;;;;;;5.13;1.88;;;13.00;93.80;;;;;;5072578;28;20459;-69
2023/10/07 12:35:47;;;;;;;6.43;1.73;;;13.00;93.90;;;;;;5067738;28;20032;-68
2023/10/07 12:38:14;;;;;;;9.50;1.80;;;13.00;94.00;;;;;;5072214;28;20448;-68
2023/10/07 12:40:42;;;;;;;3.85;1.38;;;13.10;94.10;;;;;;5073202;28;20020;-69
2023/10/07 12:43:10;;;;;;;4.88;1.38;;;13.10;94.20;;;;;;5072812;28;20036;-68
2023/10/07 12:45:37;;;;;;;6.63;1.42;;;13.10;94.20;;;;;;5079605;28;20039;-69
2023/10/07 12:48:07;;;;;;;5.82;1.70;;;13.10;94.20;;;;;;5070673;28;20029;-69
2023/10/07 12:50:34;;;;;;;6.50;1.77;;;13.10;94.10;;;;;;5077328;28;20059;-69
2023/10/07 12:53:04;;;;;;;6.85;2.10;;;13.10;94.30;;;;;;5073699;28;20376;-69
2023/10/07 12:55:34;;;;;;;5.90;2.50;;;13.10;94.30;;;;;;5075008;28;20111;-68
2023/10/07 12:58:15;;;;;;;7.40;2.75;;;13.30;94.10;;;;;;5070674;28;20028;-69
2023/10/07 13:00:43;;;;;;;10.88;3.53;;;13.10;93.90;;;;;;5070914;28;20032;-69
2023/10/07 13:03:12;;;;;;;10.98;4.78;;;13.00;93.80;;;;;;5070697;28;20330;-68
2023/10/07 13:05:42;;;;;;;9.85;3.60;;;13.00;94.00;;;;;;5070466;28;20020;-68
2023/10/07 13:08:14;;;;;;;9.55;2.88;;;12.80;94.40;;;;;;5073035;28;20465;-68
2023/10/07 13:10:44;;;;;;;8.65;2.83;;;12.80;94.50;;;;;;5076817;28;20127;-68
2023/10/07 13:13:15;;;;;;;8.88;2.22;;;12.70;94.60;;;;;;5078924;28;20028;-69
2023/10/07 13:15:43;;;;;;;7.80;2.65;;;12.60;94.60;;;;;;5068312;28;20020;-68
2023/10/07 13:18:12;;;;;;;5.28;2.42;;;12.60;94.70;;;;;;5074602;28;20040;-68
2023/10/07 13:20:40;;;;;;;7.80;3.10;;;12.50;94.70;;;;;;5069949;28;20049;-68
2023/10/07 13:23:11;;;;;;;8.13;2.88;;;12.50;94.90;;;;;;5070642;28;20087;-68
2023/10/07 13:25:39;;;;;;;7.93;2.92;;;12.40;94.90;;;;;;5072121;28;20545;-68
2023/10/07 13:28:06;;;;;;;7.82;2.40;;;12.40;94.90;;;;;;5070272;28;20404;-68
2023/10/07 13:30:34;;;;;;;6.40;1.73;;;12.40;95.00;;;;;;5074647;28;20118;-67
2023/10/07 13:33:05;;;;;;;6.20;1.67;;;12.40;95.00;;;;;;5074083;28;20032;-68
2023/10/07 13:35:33;;;;;;;4.22;1.30;;;12.40;95.10;;;;;;5074058;28;20032;-68
2023/10/07 13:38:01;;;;;;;7.28;1.42;;;12.40;95.20;;;;;;5070005;28;20024;-67
2023/10/07 13:40:30;;;;;;;8.50;1.60;;;12.40;95.50;;;;;;5071275;28;20044;-67
2023/10/07 13:42:57;;;;;;;8.15;1.42;;;12.40;95.50;;;;;;5075402;28;20032;-68
2023/10/07 13:45:30;;;;;;;6.57;1.40;;;12.50;95.80;;;;;;5068960;28;20123;-68
2023/10/07 13:47:58;;;;;;;7.82;1.70;;;12.50;95.80;;;;;;5066862;28;20043;-68
2023/10/07 13:50:27;;;;;;;6.95;1.48;;;12.50;95.90;;;;;;5071568;28;20049;-68
2023/10/07 13:58:16;;;;;;;7.43;1.90;;;12.50;96.10;;;;;;5071293;28;20082;-67
2023/10/07 14:00:45;;;;;;;7.18;1.52;;;12.50;96.10;;;;;;5072501;28;20039;-68
2023/10/07 14:03:19;;;;;;;11.65;1.60;;;12.50;96.10;;;;;;5068079;28;20062;-68
2023/10/07 14:06:01;;;;;;;10.20;1.90;;;12.50;96.10;;;;;;5072289;28;20469;-67
2023/10/07 14:08:31;;;;;;;9.40;1.77;;;12.40;96.20;;;;;;5074962;28;20028;-67
2023/10/07 14:10:59;;;;;;;11.52;1.52;;;12.40;96.20;;;;;;5070262;28;20035;-68